Time;durP1;ratioP1;P1;durP2;ratioP2;P2;SDS_P1;SDS_P2;PMS_P1;PMS_P2;Temp;Humidity;BMP_temperature;BMP_pressure;BME280_temperature;BME280_humidity;BME280_pressure;Samples;Min_cycle;Max_cycle;Signal;HPM_P1;HPM_P2
2022/04/02 00:00:42;;;;;;;3.50;1.90;;;22.90;38.80;;;;;;5024133;28;20032;-52
2022/04/02 00:03:08;;;;;;;2.63;1.55;;;22.90;38.80;;;;;;5024643;28;20030;-51
2022/04/02 00:05:34;;;;;;;3.17;1.80;;;22.90;38.80;;;;;;5025210;28;20037;-53
2022/04/02 00:08:00;;;;;;;3.22;1.60;;;22.80;38.70;;;;;;5024176;28;20037;-52
2022/04/02 00:10:25;;;;;;;2.78;1.45;;;22.80;38.60;;;;;;5024367;28;20030;-52
2022/04/02 00:12:53;;;;;;;2.45;1.55;;;22.80;38.60;;;;;;5024364;28;20053;-53
2022/04/02 00:15:19;;;;;;;3.08;1.77;;;22.80;38.60;;;;;;5024089;28;20059;-51
2022/04/02 00:17:45;;;;;;;3.13;1.92;;;22.80;38.60;;;;;;5024551;28;20053;-51
2022/04/02 00:20:11;;;;;;;3.70;2.20;;;22.80;38.60;;;;;;5024263;28;20034;-51
2022/04/02 00:22:36;;;;;;;2.85;1.70;;;22.80;38.50;;;;;;5024904;28;20037;-49
2022/04/02 00:25:03;;;;;;;2.42;1.48;;;22.80;38.40;;;;;;5023859;28;20037;-50
2022/04/02 00:27:28;;;;;;;2.72;1.60;;;22.80;38.40;;;;;;5020530;28;20513;-51
2022/04/02 00:29:54;;;;;;;3.60;1.98;;;22.80;38.30;;;;;;5021172;28;20033;-50
2022/04/02 00:32:20;;;;;;;2.92;1.73;;;22.80;38.30;;;;;;5021673;28;20030;-50
2022/04/02 00:34:47;;;;;;;2.92;1.60;;;22.70;38.30;;;;;;5020947;28;20045;-50
2022/04/02 00:37:12;;;;;;;3.30;1.65;;;22.80;38.30;;;;;;5024150;28;20033;-49
2022/04/02 00:39:38;;;;;;;2.70;1.58;;;22.80;38.30;;;;;;5023948;28;20025;-50
2022/04/02 00:42:04;;;;;;;3.72;1.75;;;22.80;38.30;;;;;;5006077;28;20496;-50
2022/04/02 00:44:30;;;;;;;3.08;1.42;;;22.70;38.30;;;;;;5005678;28;20567;-50
2022/04/02 00:46:55;;;;;;;3.20;1.77;;;22.70;38.30;;;;;;5006527;28;20107;-50
2022/04/02 00:49:21;;;;;;;3.47;1.83;;;22.70;38.30;;;;;;5023358;28;20025;-50
2022/04/02 00:51:50;;;;;;;3.25;1.80;;;22.70;38.30;;;;;;5023430;28;20037;-50
2022/04/02 00:54:17;;;;;;;3.00;1.55;;;22.70;38.20;;;;;;5022228;28;20041;-50
2022/04/02 00:56:44;;;;;;;3.65;1.90;;;22.70;38.20;;;;;;5020855;28;20039;-50
2022/04/02 00:59:10;;;;;;;3.00;1.90;;;22.70;38.20;;;;;;5023337;28;20029;-50
2022/04/02 01:01:37;;;;;;;3.40;1.80;;;22.70;38.10;;;;;;5023431;28;20087;-50
2022/04/02 01:04:05;;;;;;;4.10;2.08;;;22.60;38.10;;;;;;5023901;28;20034;-50
2022/04/02 01:06:32;;;;;;;2.85;1.85;;;22.60;38.10;;;;;;5006004;28;20021;-50
2022/04/02 01:08:58;;;;;;;3.13;1.63;;;22.60;38.00;;;;;;5023507;28;20091;-51
2022/04/02 01:11:41;;;;;;;2.88;1.70;;;22.60;38.00;;;;;;5023871;28;20114;-50
2022/04/02 01:14:07;;;;;;;;;;;22.60;38.00;;;;;;5024155;28;20026;-50
2022/04/02 01:16:33;;;;;;;2.90;1.52;;;22.60;38.00;;;;;;5023875;28;19917;-50
2022/04/02 01:19:00;;;;;;;2.70;1.45;;;22.60;37.90;;;;;;5023846;28;20061;-50
2022/04/02 01:21:27;;;;;;;3.10;1.85;;;22.60;37.90;;;;;;5025306;28;20030;-50
2022/04/02 01:23:54;;;;;;;2.55;1.42;;;22.60;37.90;;;;;;5026555;28;20116;-51
2022/04/02 01:26:20;;;;;;;2.63;1.40;;;22.60;37.90;;;;;;5026778;28;20455;-50
2022/04/02 01:28:53;;;;;;;3.00;1.75;;;22.60;38.00;;;;;;5025963;28;20117;-50
2022/04/02 01:31:20;;;;;;;;;;;22.60;38.00;;;;;;5024154;28;20018;-51
2022/04/02 01:33:48;;;;;;;3.88;1.52;;;22.60;38.00;;;;;;5026682;28;19955;-51
2022/04/02 01:36:14;;;;;;;2.92;1.58;;;22.60;38.00;;;;;;5026627;28;20025;-51
2022/04/02 01:38:40;;;;;;;3.05;1.60;;;22.50;38.00;;;;;;5027050;28;20543;-50
2022/04/02 01:41:06;;;;;;;2.83;1.45;;;22.60;38.00;;;;;;5026937;28;20033;-50
2022/04/02 01:43:33;;;;;;;3.40;1.90;;;22.50;38.00;;;;;;5026036;28;20029;-50
2022/04/02 01:46:00;;;;;;;3.25;1.70;;;22.60;38.00;;;;;;5023845;28;20038;-51
2022/04/02 01:48:26;;;;;;;3.10;1.73;;;22.50;38.00;;;;;;5026671;28;20291;-51
2022/04/02 01:50:52;;;;;;;3.28;1.60;;;22.50;38.00;;;;;;5026252;28;20458;-50
2022/04/02 01:53:19;;;;;;;2.80;1.50;;;22.50;38.00;;;;;;5027371;28;20466;-50
2022/04/02 01:55:45;;;;;;;2.47;1.40;;;22.50;37.90;;;;;;5027500;28;20022;-50
2022/04/02 01:58:11;;;;;;;3.42;1.85;;;22.50;37.90;;;;;;5026405;28;20048;-50
2022/04/02 02:00:37;;;;;;;2.85;1.55;;;22.50;37.80;;;;;;5026488;28;20029;-50
2022/04/02 02:03:04;;;;;;;2.25;1.30;;;22.50;37.90;;;;;;5027389;28;20053;-50
2022/04/02 02:05:29;;;;;;;2.55;1.58;;;22.50;37.80;;;;;;5027615;28;20108;-51
2022/04/02 02:07:55;;;;;;;3.17;1.85;;;22.50;37.80;;;;;;5020334;28;20474;-51
2022/04/02 02:10:21;;;;;;;2.35;1.40;;;22.50;37.80;;;;;;5009717;28;20037;-50
2022/04/02 02:12:47;;;;;;;2.67;1.60;;;22.50;37.80;;;;;;5008936;28;20114;-51
2022/04/02 02:15:16;;;;;;;2.97;1.58;;;22.50;37.70;;;;;;5026390;28;20072;-50
2022/04/02 02:17:47;;;;;;;2.65;1.50;;;22.40;37.60;;;;;;5001331;28;20061;-51
2022/04/02 02:20:15;;;;;;;3.03;1.45;;;22.40;37.70;;;;;;5023221;28;20033;-51
2022/04/02 02:22:41;;;;;;;3.58;1.67;;;22.40;37.70;;;;;;5024229;28;20033;-51
2022/04/02 02:25:09;;;;;;;2.13;1.17;;;22.40;37.70;;;;;;5026493;28;20041;-50
2022/04/02 02:27:36;;;;;;;3.00;1.80;;;22.40;37.70;;;;;;5026806;28;20064;-50
2022/04/02 02:30:06;;;;;;;2.83;1.67;;;22.40;37.70;;;;;;5026534;28;20021;-50
2022/04/02 02:32:36;;;;;;;2.95;1.73;;;22.40;37.70;;;;;;5008689;28;20605;-50
2022/04/02 02:38:08;;;;;;;3.50;2.10;;;22.40;37.70;;;;;;5026434;28;20037;-50
2022/04/02 02:40:35;;;;;;;3.15;1.80;;;22.40;37.60;;;;;;5026403;28;20033;-50
2022/04/02 02:43:00;;;;;;;2.88;1.60;;;22.40;37.60;;;;;;5026754;28;20056;-50
2022/04/02 02:45:27;;;;;;;2.88;1.55;;;22.40;37.60;;;;;;5008531;28;20421;-50
2022/04/02 02:47:53;;;;;;;3.05;1.80;;;22.40;37.60;;;;;;5026430;28;20030;-51
2022/04/02 02:50:20;;;;;;;3.15;1.70;;;22.40;37.60;;;;;;5025671;28;20052;-50
2022/04/02 02:52:46;;;;;;;2.58;1.55;;;22.40;37.60;;;;;;5025891;28;20041;-51
2022/04/02 02:55:12;;;;;;;2.20;1.35;;;22.40;37.50;;;;;;5026159;28;20036;-50
2022/04/02 02:57:39;;;;;;;2.60;1.38;;;22.40;37.50;;;;;;5022493;28;20040;-50
2022/04/02 03:00:07;;;;;;;2.83;1.70;;;22.40;37.50;;;;;;5023972;28;20398;-50
2022/04/02 03:02:34;;;;;;;2.60;1.50;;;22.40;37.50;;;;;;5025929;28;20025;-50
2022/04/02 03:04:59;;;;;;;2.90;1.45;;;22.40;37.50;;;;;;5025887;28;20509;-50
2022/04/02 03:07:25;;;;;;;2.90;1.60;;;22.40;37.50;;;;;;5025298;28;20116;-51
2022/04/02 03:09:51;;;;;;;2.47;1.35;;;22.30;37.50;;;;;;5025763;28;20021;-50
2022/04/02 03:12:17;;;;;;;2.88;1.55;;;22.30;37.60;;;;;;5025725;28;20076;-51
2022/04/02 03:14:43;;;;;;;3.30;1.80;;;22.30;37.50;;;;;;5025954;28;20041;-50
2022/04/02 03:17:09;;;;;;;3.15;1.90;;;22.30;37.50;;;;;;5026106;28;20037;-50
2022/04/02 03:19:35;;;;;;;2.70;1.67;;;22.30;37.50;;;;;;5025986;28;20033;-51
2022/04/02 03:22:01;;;;;;;3.47;2.13;;;22.30;37.50;;;;;;5025602;28;20056;-50
2022/04/02 03:24:27;;;;;;;2.67;1.48;;;22.30;37.50;;;;;;5025674;28;20064;-49
2022/04/02 03:26:53;;;;;;;2.58;1.67;;;22.30;37.50;;;;;;5025431;28;20026;-50
2022/04/02 03:29:20;;;;;;;3.67;1.75;;;22.30;37.50;;;;;;5025273;28;20032;-50
2022/04/02 03:31:46;;;;;;;2.75;1.50;;;22.30;37.50;;;;;;5025170;28;20781;-49
2022/04/02 03:34:12;;;;;;;3.40;1.75;;;22.30;37.40;;;;;;5023650;28;20091;-50
2022/04/02 03:36:38;;;;;;;2.70;1.63;;;22.30;37.40;;;;;;5025024;28;20029;-49
2022/04/02 03:39:04;;;;;;;2.53;1.55;;;22.30;37.40;;;;;;5024816;28;20068;-50
2022/04/02 03:41:29;;;;;;;2.72;1.50;;;22.30;37.40;;;;;;5025248;28;20064;-49
2022/04/02 03:43:56;;;;;;;2.72;1.52;;;22.30;37.40;;;;;;5006987;28;20025;-50
2022/04/02 03:49:06;;;;;;;2.63;1.52;;;22.30;38.00;;;;;;5025138;28;20059;-50
2022/04/02 03:51:32;;;;;;;2.33;1.40;;;22.30;37.40;;;;;;5024156;28;20064;-50
2022/04/02 03:53:59;;;;;;;2.92;1.58;;;22.30;37.40;;;;;;5025036;28;20041;-50
2022/04/02 03:56:25;;;;;;;2.47;1.52;;;22.30;37.30;;;;;;5025044;28;20236;-50
2022/04/02 03:58:51;;;;;;;2.92;1.70;;;22.20;37.20;;;;;;5024689;28;20478;-50
2022/04/02 04:01:17;;;;;;;2.72;1.40;;;22.30;37.30;;;;;;5024962;28;20036;-50
2022/04/02 04:03:43;;;;;;;2.80;1.48;;;22.30;37.30;;;;;;5025200;28;20124;-51
2022/04/02 04:06:09;;;;;;;2.90;1.45;;;22.30;37.40;;;;;;5025558;28;20021;-50
2022/04/02 04:08:39;;;;;;;2.90;1.48;;;22.20;37.90;;;;;;5024732;28;20025;-51
2022/04/02 04:11:05;;;;;;;2.95;1.75;;;22.30;37.30;;;;;;5024836;28;20026;-51
2022/04/02 04:13:30;;;;;;;2.90;1.63;;;22.20;37.20;;;;;;5024995;28;20083;-50
2022/04/02 04:15:56;;;;;;;3.10;1.75;;;22.30;37.30;;;;;;5025377;28;20025;-50
2022/04/02 04:18:23;;;;;;;2.67;1.50;;;22.20;37.20;;;;;;5023980;28;20112;-51
2022/04/02 04:20:49;;;;;;;2.70;1.60;;;22.30;37.20;;;;;;5024683;28;20029;-50
2022/04/02 04:23:17;;;;;;;2.75;1.42;;;22.20;37.10;;;;;;5024626;28;20561;-51
2022/04/02 04:25:43;;;;;;;2.67;1.50;;;22.20;37.20;;;;;;5025188;28;20029;-51
2022/04/02 04:28:09;;;;;;;2.33;1.45;;;22.30;37.20;;;;;;5024289;28;20025;-50
2022/04/02 04:30:34;;;;;;;3.30;1.70;;;22.30;37.20;;;;;;5024384;28;20080;-50
2022/04/02 04:33:00;;;;;;;2.72;1.50;;;22.20;37.10;;;;;;5006400;28;20325;-51
2022/04/02 04:35:26;;;;;;;2.85;1.50;;;22.30;37.20;;;;;;5024349;28;20029;-50
2022/04/02 04:37:52;;;;;;;2.58;1.45;;;22.30;37.20;;;;;;5023671;28;20036;-50
2022/04/02 04:40:18;;;;;;;2.80;1.50;;;22.20;37.00;;;;;;5006463;28;20040;-50
2022/04/02 04:42:44;;;;;;;2.35;1.30;;;22.20;37.00;;;;;;5024172;28;20037;-50
2022/04/02 04:45:10;;;;;;;3.20;1.80;;;22.20;37.00;;;;;;5024565;28;20041;-50
2022/04/02 04:47:35;;;;;;;2.28;1.27;;;22.20;37.00;;;;;;5024093;28;20660;-50
2022/04/02 04:50:01;;;;;;;2.53;1.58;;;22.20;37.10;;;;;;5005746;28;20025;-49
2022/04/02 04:52:27;;;;;;;2.70;1.58;;;22.20;37.00;;;;;;5023817;28;20025;-49
2022/04/02 04:54:53;;;;;;;3.25;1.65;;;22.20;37.10;;;;;;5025146;28;20108;-50
2022/04/02 04:57:19;;;;;;;2.72;1.50;;;22.20;37.00;;;;;;5010585;28;20109;-50
2022/04/02 04:59:44;;;;;;;2.85;1.63;;;22.20;37.00;;;;;;5028193;28;20033;-50
2022/04/02 05:02:12;;;;;;;2.67;1.55;;;22.20;37.10;;;;;;5027697;28;20036;-50
2022/04/02 05:04:38;;;;;;;3.00;1.60;;;22.20;37.10;;;;;;5028437;28;20069;-51
2022/04/02 05:07:04;;;;;;;3.00;1.50;;;22.20;37.00;;;;;;5028239;28;20378;-50
2022/04/02 05:09:30;;;;;;;3.00;1.63;;;22.20;37.10;;;;;;5027913;28;20440;-50
2022/04/02 05:11:57;;;;;;;2.38;1.42;;;22.20;37.10;;;;;;5027881;28;20275;-51
2022/04/02 05:14:23;;;;;;;2.45;1.40;;;22.20;37.10;;;;;;5028091;28;20252;-51
2022/04/02 05:16:51;;;;;;;2.53;1.40;;;22.20;37.10;;;;;;5009422;28;20029;-51
2022/04/02 05:19:18;;;;;;;1.95;1.08;;;22.20;37.20;;;;;;5026925;28;20029;-51
2022/04/02 05:21:43;;;;;;;2.78;1.55;;;22.20;37.20;;;;;;5009222;28;20033;-50
2022/04/02 05:24:09;;;;;;;2.83;1.67;;;22.20;37.20;;;;;;5026780;28;20290;-50
2022/04/02 05:26:35;;;;;;;2.63;1.35;;;22.20;37.20;;;;;;5027173;28;20108;-50
2022/04/02 05:29:01;;;;;;;4.07;1.65;;;22.20;37.30;;;;;;5027560;28;20040;-51
2022/04/02 05:31:27;;;;;;;2.63;1.40;;;22.30;37.30;;;;;;5026561;28;20032;-50
2022/04/02 05:33:54;;;;;;;2.40;1.25;;;22.30;37.40;;;;;;5026287;28;20030;-50
2022/04/02 05:36:20;;;;;;;1.77;1.02;;;22.30;37.40;;;;;;5009719;28;20049;-50
2022/04/02 05:38:46;;;;;;;2.63;1.25;;;22.40;37.30;;;;;;5008986;28;20650;-50
2022/04/02 05:41:11;;;;;;;2.35;1.38;;;22.40;37.20;;;;;;5026561;28;20026;-50
2022/04/02 05:43:37;;;;;;;3.08;1.40;;;22.40;37.20;;;;;;5026920;28;20036;-50
2022/04/02 05:46:03;;;;;;;2.25;1.35;;;22.50;37.20;;;;;;5026759;28;20079;-50
2022/04/02 05:48:31;;;;;;;2.33;1.25;;;22.60;37.10;;;;;;5026532;28;20032;-51
2022/04/02 05:50:57;;;;;;;3.00;1.42;;;22.60;37.00;;;;;;5026393;28;20389;-51
2022/04/02 05:53:23;;;;;;;2.75;1.38;;;22.70;37.00;;;;;;5007350;28;20033;-51
2022/04/02 05:55:49;;;;;;;3.08;1.40;;;22.80;36.90;;;;;;4991740;28;20057;-51
2022/04/02 05:58:15;;;;;;;2.65;1.40;;;22.80;36.70;;;;;;5025966;28;20133;-50
2022/04/02 06:00:41;;;;;;;2.90;1.60;;;22.80;36.60;;;;;;5026579;28;20033;-51
2022/04/02 06:03:07;;;;;;;2.30;1.20;;;22.90;36.60;;;;;;5026646;28;20117;-50
2022/04/02 06:05:33;;;;;;;2.13;1.02;;;22.90;36.60;;;;;;5026156;28;20026;-51
2022/04/02 06:07:59;;;;;;;2.85;1.10;;;23.00;36.50;;;;;;5025204;28;20033;-51
2022/04/02 06:10:24;;;;;;;3.05;1.30;;;23.00;36.40;;;;;;5025754;28;20493;-51
2022/04/02 06:12:51;;;;;;;2.25;1.20;;;23.10;36.30;;;;;;5024001;28;20021;-51
2022/04/02 06:15:18;;;;;;;2.28;1.20;;;23.10;36.20;;;;;;5007972;28;20025;-51
2022/04/02 06:17:43;;;;;;;3.03;1.38;;;23.20;36.30;;;;;;5025944;28;20053;-52
2022/04/02 06:20:09;;;;;;;2.70;1.40;;;23.20;36.80;;;;;;5025224;28;20057;-51
2022/04/02 06:22:36;;;;;;;3.67;1.60;;;23.20;37.10;;;;;;5025667;28;20033;-51
2022/04/02 06:25:02;;;;;;;4.00;1.50;;;23.30;37.60;;;;;;5025784;28;20025;-51
2022/04/02 06:27:28;;;;;;;3.85;1.75;;;23.30;37.70;;;;;;5025633;28;20528;-51
2022/04/02 06:29:57;;;;;;;4.10;1.60;;;23.40;37.60;;;;;;5025991;28;20079;-51
2022/04/02 06:32:23;;;;;;;3.35;1.90;;;23.40;37.60;;;;;;5025422;28;20698;-50
2022/04/02 06:34:49;;;;;;;4.40;2.20;;;23.40;37.60;;;;;;5025890;28;20040;-49
2022/04/02 06:37:14;;;;;;;4.78;1.80;;;23.40;37.60;;;;;;5012909;28;20211;-50
2022/04/02 06:39:40;;;;;;;3.83;1.63;;;23.40;37.60;;;;;;5023856;28;20409;-50
2022/04/02 06:42:06;;;;;;;3.65;2.10;;;23.50;37.40;;;;;;5025066;28;20505;-50
2022/04/02 06:44:32;;;;;;;4.80;3.45;;;23.40;37.10;;;;;;5007400;28;20480;-51
2022/04/02 06:46:59;;;;;;;22.92;20.58;;;23.50;36.90;;;;;;5024754;28;20045;-50
2022/04/02 06:49:25;;;;;;;169.60;151.73;;;23.50;37.00;;;;;;5024574;28;20021;-49
2022/04/02 06:51:51;;;;;;;394.92;352.25;;;23.50;37.70;;;;;;5007034;28;20037;-49
2022/04/02 06:54:17;;;;;;;547.58;489.08;;;23.50;38.00;;;;;;5024664;28;20218;-49
2022/04/02 06:56:44;;;;;;;500.42;446.90;;;23.50;37.30;;;;;;5044321;28;20025;-50
2022/04/02 06:59:10;;;;;;;349.90;310.50;;;23.50;37.10;;;;;;5028958;28;20030;-50
2022/04/02 07:01:35;;;;;;;225.15;199.52;;;23.60;36.50;;;;;;5007249;28;20649;-49
2022/04/02 07:04:01;;;;;;;171.27;152.20;;;23.60;36.00;;;;;;5023939;28;20155;-49
2022/04/02 07:06:27;;;;;;;145.57;123.63;;;23.60;35.80;;;;;;5006676;28;20524;-49
2022/04/02 07:08:52;;;;;;;123.93;104.85;;;23.60;35.50;;;;;;5024151;28;20548;-49
2022/04/02 07:11:18;;;;;;;105.43;88.30;;;23.60;35.30;;;;;;5024789;28;20022;-49
2022/04/02 07:13:44;;;;;;;95.63;78.22;;;23.60;34.80;;;;;;5024772;28;20026;-49
2022/04/02 07:16:10;;;;;;;78.32;66.88;;;23.60;34.70;;;;;;5024964;28;20067;-49
2022/04/02 07:18:43;;;;;;;69.80;58.00;;;23.50;34.60;;;;;;5007165;28;20490;-50
2022/04/02 07:21:11;;;;;;;65.45;54.00;;;23.60;34.00;;;;;;5007067;28;20037;-50
2022/04/02 07:23:42;;;;;;;64.47;52.35;;;23.60;34.10;;;;;;5025181;28;20151;-50
2022/04/02 07:26:08;;;;;;;61.75;50.10;;;23.50;33.70;;;;;;5024364;28;20029;-50
2022/04/02 07:28:36;;;;;;;59.72;49.70;;;23.50;33.50;;;;;;5024209;28;20104;-50
2022/04/02 07:31:02;;;;;;;59.40;48.25;;;23.50;33.60;;;;;;5024120;28;20026;-50
2022/04/02 07:33:27;;;;;;;58.00;46.65;;;23.60;33.90;;;;;;5024533;28;20028;-51
2022/04/02 07:36:18;;;;;;;52.58;43.35;;;23.50;34.10;;;;;;4989851;28;20508;-50
2022/04/02 07:38:54;;;;;;;52.78;42.10;;;23.50;34.00;;;;;;5023357;28;20049;-50
2022/04/02 07:41:42;;;;;;;49.53;39.75;;;23.50;34.30;;;;;;5022314;28;20798;-51
2022/04/02 07:44:19;;;;;;;42.70;34.28;;;23.50;34.50;;;;;;5002896;28;20041;-51
2022/04/02 07:46:47;;;;;;;41.88;33.08;;;23.50;34.80;;;;;;5004672;28;20112;-50
2022/04/02 07:49:17;;;;;;;38.13;30.95;;;23.50;34.80;;;;;;5023788;28;20026;-51
2022/04/02 07:51:49;;;;;;;33.25;27.33;;;23.50;34.80;;;;;;5024720;28;20116;-50
2022/04/02 07:54:17;;;;;;;37.67;27.13;;;23.50;34.90;;;;;;5025325;28;20418;-51
2022/04/02 07:56:48;;;;;;;31.40;25.33;;;23.50;34.70;;;;;;5006948;28;20445;-51
2022/04/02 07:59:32;;;;;;;31.05;23.45;;;23.50;34.70;;;;;;5014171;28;20109;-51
2022/04/02 08:01:59;;;;;;;28.25;21.02;;;23.50;34.70;;;;;;5019649;28;20084;-51
2022/04/02 08:04:26;;;;;;;27.63;21.88;;;23.50;34.90;;;;;;5016653;28;20052;-51
2022/04/02 08:06:52;;;;;;;27.85;20.35;;;23.50;34.90;;;;;;5019943;28;20029;-51
2022/04/02 08:09:20;;;;;;;24.85;19.95;;;23.50;35.00;;;;;;5022582;28;20426;-51
2022/04/02 08:11:48;;;;;;;23.50;18.95;;;23.50;34.90;;;;;;5005624;28;20052;-50
2022/04/02 08:14:14;;;;;;;21.63;17.05;;;23.50;35.00;;;;;;5021853;28;20040;-51
2022/04/02 08:16:45;;;;;;;21.75;16.42;;;23.50;35.00;;;;;;5022384;28;20033;-50
2022/04/02 08:19:12;;;;;;;21.30;17.83;;;23.50;35.10;;;;;;5022831;28;20037;-50
2022/04/02 08:21:39;;;;;;;20.40;15.27;;;23.60;35.00;;;;;;5022897;28;20025;-51
2022/04/02 08:24:05;;;;;;;18.00;14.52;;;23.50;35.10;;;;;;5022888;28;20088;-51
2022/04/02 08:26:38;;;;;;;19.30;14.45;;;23.60;35.10;;;;;;5023053;28;20049;-51
2022/04/02 08:29:19;;;;;;;18.27;13.95;;;23.60;35.20;;;;;;5023201;28;20037;-50
2022/04/02 08:32:11;;;;;;;17.65;13.52;;;23.60;35.20;;;;;;5029019;28;20036;-51
2022/04/02 08:34:56;;;;;;;15.73;12.40;;;23.60;35.20;;;;;;5011585;28;20056;-51
2022/04/02 08:37:33;;;;;;;13.75;11.38;;;23.60;35.10;;;;;;5029066;28;20022;-50
2022/04/02 08:40:02;;;;;;;14.40;10.90;;;23.60;35.20;;;;;;5029684;28;20029;-52
2022/04/02 08:43:10;;;;;;;15.18;10.57;;;23.60;35.20;;;;;;5029141;28;20033;-51
2022/04/02 08:45:56;;;;;;;13.90;9.93;;;23.50;35.20;;;;;;5029611;28;20037;-51
2022/04/02 08:48:33;;;;;;;14.45;11.30;;;23.60;35.10;;;;;;5029908;28;20034;-51
2022/04/02 08:51:28;;;;;;;12.80;9.45;;;23.60;35.00;;;;;;5029643;28;20363;-52
2022/04/02 08:54:05;;;;;;;12.57;9.57;;;23.60;35.10;;;;;;5029226;28;20108;-51
2022/04/02 08:56:38;;;;;;;11.02;8.82;;;23.50;35.00;;;;;;5030011;28;20037;-51
2022/04/02 08:59:06;;;;;;;11.98;8.57;;;23.50;35.00;;;;;;5010907;28;20064;-51
2022/04/02 09:01:42;;;;;;;11.43;8.55;;;23.50;34.90;;;;;;5012077;28;20581;-51
2022/04/02 09:04:29;;;;;;;10.25;7.50;;;23.60;35.00;;;;;;5029042;28;20688;-50
2022/04/02 09:07:13;;;;;;;12.60;8.55;;;23.50;35.00;;;;;;5011644;28;20033;-51
2022/04/02 09:10:01;;;;;;;11.52;7.88;;;23.60;35.00;;;;;;5025609;28;20219;-51
2022/04/02 09:12:29;;;;;;;9.70;7.05;;;23.50;35.10;;;;;;5024018;28;20017;-51
2022/04/02 09:14:55;;;;;;;8.75;6.45;;;23.60;35.20;;;;;;5016791;28;20029;-51
2022/04/02 09:17:45;;;;;;;10.60;7.03;;;23.60;35.20;;;;;;5023289;28;20034;-51
2022/04/02 09:20:23;;;;;;;8.80;6.68;;;23.60;35.20;;;;;;5028260;28;20068;-51
2022/04/02 09:22:58;;;;;;;7.53;5.95;;;23.60;35.20;;;;;;5029334;28;20034;-50
2022/04/02 09:25:38;;;;;;;8.30;6.03;;;23.60;35.20;;;;;;5029696;28;20013;-51
2022/04/02 09:28:17;;;;;;;7.85;5.70;;;23.60;35.30;;;;;;5029709;28;20112;-50
2022/04/02 09:31:13;;;;;;;7.63;5.57;;;23.60;35.30;;;;;;5029020;28;20025;-51
2022/04/02 09:34:09;;;;;;;6.93;5.10;;;23.60;35.30;;;;;;5029137;28;20022;-50
2022/04/02 09:36:59;;;;;;;8.02;4.95;;;23.60;35.30;;;;;;5029166;28;20029;-51
2022/04/02 09:39:43;;;;;;;6.53;4.57;;;23.60;35.30;;;;;;5029207;28;20032;-50
2022/04/02 09:42:09;;;;;;;7.50;5.03;;;23.60;35.30;;;;;;5025891;28;20029;-50
2022/04/02 09:44:52;;;;;;;9.18;5.70;;;23.60;35.30;;;;;;5026218;28;20029;-50
2022/04/02 09:47:26;;;;;;;7.53;4.53;;;23.60;35.40;;;;;;5026125;28;20028;-50
2022/04/02 09:50:12;;;;;;;6.25;4.57;;;23.60;35.30;;;;;;5025553;28;20025;-50
2022/04/02 09:52:44;;;;;;;7.53;5.00;;;23.60;35.40;;;;;;5005451;28;20682;-51
2022/04/02 09:55:14;;;;;;;6.53;4.63;;;23.50;35.30;;;;;;5022873;28;20083;-50
2022/04/02 09:57:52;;;;;;;7.30;4.65;;;23.50;35.30;;;;;;5026483;28;20033;-50
2022/04/02 10:00:19;;;;;;;6.45;4.18;;;23.50;35.40;;;;;;5025578;28;20114;-51
2022/04/02 10:03:04;;;;;;;6.05;4.35;;;23.50;35.20;;;;;;5026333;28;20075;-52
2022/04/02 10:05:41;;;;;;;6.72;4.50;;;23.50;36.00;;;;;;5025100;28;20056;-51
2022/04/02 10:08:21;;;;;;;6.07;4.03;;;23.50;35.40;;;;;;5025129;28;20037;-51
2022/04/02 10:10:50;;;;;;;6.85;4.32;;;23.50;35.30;;;;;;5023598;28;20032;-51
2022/04/02 10:13:16;;;;;;;6.00;4.22;;;23.50;35.40;;;;;;5024858;28;20125;-51
2022/04/02 10:15:42;;;;;;;5.93;4.10;;;23.50;35.40;;;;;;5025246;28;20033;-50
2022/04/02 10:18:11;;;;;;;6.70;4.30;;;23.50;35.50;;;;;;5023149;28;20025;-50
2022/04/02 10:20:38;;;;;;;5.57;3.53;;;23.50;35.70;;;;;;5025532;28;20029;-51
2022/04/02 10:23:19;;;;;;;6.70;4.57;;;23.50;35.80;;;;;;5017822;28;20040;-51
2022/04/02 10:26:17;;;;;;;6.38;3.97;;;23.60;35.80;;;;;;5025375;28;20031;-50
2022/04/02 10:29:02;;;;;;;5.68;3.83;;;23.60;35.70;;;;;;5007864;28;20182;-51
2022/04/02 10:31:33;;;;;;;5.20;3.53;;;23.60;35.70;;;;;;5025594;28;20025;-51
2022/04/02 10:34:26;;;;;;;7.25;4.32;;;23.60;35.70;;;;;;5025197;28;20025;-50
2022/04/02 10:37:00;;;;;;;5.82;3.78;;;23.60;35.70;;;;;;5024381;28;20022;-51
2022/04/02 10:39:29;;;;;;;5.70;3.33;;;23.60;35.60;;;;;;5024545;28;20021;-51
2022/04/02 10:42:02;;;;;;;5.93;3.30;;;23.60;35.60;;;;;;5024814;28;20578;-51
2022/04/02 10:45:00;;;;;;;5.30;3.40;;;23.60;35.60;;;;;;5024511;28;20144;-50
2022/04/02 10:47:30;;;;;;;4.72;3.10;;;23.60;35.60;;;;;;4996813;28;20108;-51
2022/04/02 10:50:07;;;;;;;6.20;3.53;;;23.60;35.60;;;;;;5018542;28;20033;-50
2022/04/02 10:52:34;;;;;;;5.53;3.58;;;23.60;35.70;;;;;;5005951;28;20022;-50
2022/04/02 10:55:00;;;;;;;5.97;3.25;;;23.60;35.60;;;;;;5006285;28;20421;-50
2022/04/02 10:57:32;;;;;;;4.78;3.20;;;23.60;35.70;;;;;;5024313;28;20029;-50
2022/04/02 11:00:07;;;;;;;5.45;3.22;;;23.50;35.70;;;;;;5024844;28;20017;-50
2022/04/02 11:02:41;;;;;;;5.38;3.22;;;23.50;35.70;;;;;;5025178;28;20037;-50
2022/04/02 11:05:14;;;;;;;5.30;3.10;;;23.50;35.80;;;;;;5025231;28;20041;-50
2022/04/02 11:07:48;;;;;;;5.28;3.10;;;23.50;35.70;;;;;;5024707;28;20048;-51
2022/04/02 11:10:19;;;;;;;5.55;3.65;;;23.50;35.80;;;;;;5024640;28;20259;-50
2022/04/02 11:12:48;;;;;;;5.70;3.47;;;23.50;35.90;;;;;;5025014;28;20027;-51
2022/04/02 11:15:19;;;;;;;4.60;3.10;;;23.50;36.00;;;;;;5025011;28;20026;-50
2022/04/02 11:17:48;;;;;;;5.18;3.35;;;23.50;36.10;;;;;;5024583;28;20036;-50
2022/04/02 11:20:25;;;;;;;5.47;3.60;;;23.50;36.00;;;;;;5024618;28;20029;-51
2022/04/02 11:22:51;;;;;;;5.97;3.17;;;23.50;36.10;;;;;;5024948;28;20037;-50
2022/04/02 11:25:32;;;;;;;6.13;3.58;;;23.50;36.20;;;;;;5021640;28;20060;-51
2022/04/02 11:28:14;;;;;;;5.30;3.35;;;23.50;36.40;;;;;;5024405;28;20794;-51
2022/04/02 11:31:01;;;;;;;6.35;3.92;;;23.50;36.50;;;;;;5023462;28;20124;-50
2022/04/02 11:33:27;;;;;;;5.35;3.35;;;23.50;36.80;;;;;;5023770;28;20045;-50
2022/04/02 11:35:54;;;;;;;6.63;3.47;;;23.50;37.10;;;;;;5024232;28;20109;-50
2022/04/02 11:38:20;;;;;;;7.55;3.83;;;23.50;37.20;;;;;;5024258;28;20049;-51
2022/04/02 11:41:04;;;;;;;6.35;3.72;;;23.50;37.20;;;;;;5023260;28;20704;-51
2022/04/02 11:43:44;;;;;;;5.47;3.80;;;23.50;37.10;;;;;;5024094;28;20123;-51
2022/04/02 11:46:12;;;;;;;5.72;3.58;;;23.50;37.00;;;;;;5024205;28;20029;-50
2022/04/02 11:48:50;;;;;;;5.95;3.80;;;23.40;36.90;;;;;;5024148;28;20592;-50
2022/04/02 11:51:21;;;;;;;5.68;3.45;;;23.50;37.00;;;;;;5023564;28;20030;-51
2022/04/02 11:53:47;;;;;;;6.40;3.55;;;23.50;37.00;;;;;;5023610;28;20033;-50
2022/04/02 11:56:26;;;;;;;5.25;3.30;;;23.50;36.90;;;;;;5024153;28;20030;-50
2022/04/02 11:58:54;;;;;;;6.90;4.07;;;23.40;36.80;;;;;;5024001;28;20038;-51
2022/04/02 12:01:21;;;;;;;4.90;3.38;;;23.40;36.70;;;;;;5024113;28;20029;-52
2022/04/02 12:04:09;;;;;;;7.20;3.83;;;23.40;36.80;;;;;;5024453;28;20026;-50
2022/04/02 12:06:36;;;;;;;6.78;3.53;;;23.40;36.80;;;;;;5024327;28;20036;-50
2022/04/02 12:09:28;;;;;;;4.93;3.28;;;23.40;36.70;;;;;;5023929;28;20022;-51
2022/04/02 12:11:56;;;;;;;5.60;3.30;;;23.40;36.70;;;;;;5019341;28;20053;-51
2022/04/02 12:14:39;;;;;;;4.95;3.03;;;23.30;36.70;;;;;;5024404;28;20056;-56
2022/04/02 12:17:06;;;;;;;;;;;23.40;36.60;;;;;;5006209;28;20030;-51
2022/04/02 12:19:44;;;;;;;4.90;3.20;;;23.30;36.60;;;;;;5023658;28;20478;-51
2022/04/02 12:22:27;;;;;;;5.72;3.28;;;23.30;36.60;;;;;;5023937;28;20036;-51
2022/04/02 12:24:59;;;;;;;7.10;3.37;;;23.30;36.60;;;;;;5006251;28;20103;-51
2022/04/02 12:27:28;;;;;;;5.07;3.28;;;23.30;36.50;;;;;;5023667;28;20053;-51
2022/04/02 12:29:57;;;;;;;5.75;3.28;;;23.30;36.50;;;;;;5023799;28;20021;-51
2022/04/02 12:32:44;;;;;;;5.78;2.75;;;23.30;36.50;;;;;;5023819;28;20538;-51
2022/04/02 12:35:21;;;;;;;5.13;2.83;;;23.30;36.50;;;;;;5004107;28;20039;-51
2022/04/02 12:37:49;;;;;;;4.70;2.75;;;23.30;36.50;;;;;;5005697;28;20061;-51
2022/04/02 12:40:15;;;;;;;5.50;2.85;;;23.20;36.30;;;;;;5023135;28;20061;-49
2022/04/02 12:42:42;;;;;;;6.28;3.30;;;23.20;36.30;;;;;;5023512;28;20585;-50
2022/04/02 12:45:11;;;;;;;4.65;2.70;;;23.30;36.30;;;;;;5023542;28;20038;-50
2022/04/02 12:47:37;;;;;;;4.82;2.80;;;23.20;36.20;;;;;;5023566;28;20026;-49
2022/04/02 12:50:14;;;;;;;4.18;2.85;;;23.20;36.20;;;;;;5023402;28;20030;-50
2022/04/02 12:52:45;;;;;;;4.22;2.63;;;23.20;36.20;;;;;;5005144;28;20033;-49
2022/04/02 12:55:23;;;;;;;3.90;2.60;;;23.20;36.10;;;;;;5023455;28;20484;-52
2022/04/02 12:57:59;;;;;;;4.78;3.10;;;23.20;36.20;;;;;;5005915;28;20037;-50
2022/04/02 13:00:34;;;;;;;5.93;2.88;;;23.20;36.10;;;;;;5022539;28;20569;-50
2022/04/02 13:03:02;;;;;;;4.40;2.92;;;23.20;36.10;;;;;;5023198;28;20056;-51